createdAt,value
2022-08-10T00:01:51.935Z,21.55
2022-08-10T00:04:22.255Z,21.45
2022-08-10T00:06:53.700Z,21.30
2022-08-10T00:09:22.284Z,21.62
2022-08-10T00:11:50.642Z,21.34
2022-08-10T00:14:19.168Z,21.27
2022-08-10T00:16:47.413Z,21.40
2022-08-10T00:19:16.631Z,21.23
2022-08-10T00:21:46.978Z,21.23
2022-08-10T00:24:17.135Z,21.28
2022-08-10T00:27:51.799Z,21.16
2022-08-10T00:29:33.816Z,21.06
2022-08-10T00:32:02.088Z,21.30
2022-08-10T00:34:31.121Z,20.96
2022-08-10T00:36:59.889Z,21.15
2022-08-10T00:39:30.434Z,21.00
2022-08-10T00:42:08.166Z,20.77
2022-08-10T00:44:37.910Z,20.94
2022-08-10T00:47:06.676Z,21.04
2022-08-10T00:49:34.978Z,20.70
2022-08-10T00:52:03.813Z,20.63
2022-08-10T00:54:33.574Z,20.67
2022-08-10T00:57:16.239Z,20.53
2022-08-10T00:59:59.159Z,20.70
2022-08-10T01:02:30.192Z,20.47
2022-08-10T01:05:01.964Z,20.64
2022-08-10T01:08:03.193Z,20.63
2022-08-10T01:10:39.810Z,20.57
2022-08-10T01:13:11.527Z,20.53
2022-08-10T01:15:48.024Z,20.76
2022-08-10T01:18:21.379Z,20.61
2022-08-10T01:21:02.583Z,20.80
2022-08-10T01:23:55.108Z,20.92
2022-08-10T01:26:40.553Z,20.74
2022-08-10T01:29:37.885Z,20.82
2022-08-10T01:32:09.070Z,20.77
2022-08-10T01:34:40.644Z,20.76
2022-08-10T01:37:13.746Z,20.67
2022-08-10T01:39:45.330Z,20.94
2022-08-10T01:42:16.342Z,20.77
2022-08-10T01:44:50.202Z,20.58
2022-08-10T01:47:42.931Z,20.49
2022-08-10T01:50:15.156Z,20.39
2022-08-10T01:52:44.174Z,20.10
2022-08-10T01:55:13.880Z,19.94
2022-08-10T01:57:43.077Z,20.30
2022-08-10T02:00:14.167Z,20.27
2022-08-10T02:02:43.408Z,20.21
2022-08-10T02:05:13.203Z,20.13
2022-08-10T02:07:44.098Z,20.33
2022-08-10T02:10:14.666Z,20.19
2022-08-10T02:12:44.855Z,20.26
2022-08-10T02:15:17.381Z,20.44
2022-08-10T02:17:59.624Z,20.40
2022-08-10T02:20:34.277Z,20.44
2022-08-10T02:23:05.383Z,20.43
2022-08-10T02:25:41.609Z,20.22
2022-08-10T02:28:30.494Z,20.23
2022-08-10T02:31:06.094Z,19.69
2022-08-10T02:33:36.961Z,20.10
2022-08-10T02:36:07.472Z,20.38
2022-08-10T02:38:58.899Z,20.26
2022-08-10T02:45:01.478Z,20.25
2022-08-10T02:45:29.743Z,19.77
2022-08-10T02:47:17.942Z,19.55
2022-08-10T02:49:51.257Z,19.66
2022-08-10T02:52:23.688Z,19.70
2022-08-10T02:54:53.756Z,20.18
2022-08-10T02:57:25.387Z,20.33
2022-08-10T02:59:56.101Z,20.37
2022-08-10T03:02:29.179Z,19.61
2022-08-10T03:05:02.679Z,19.84
2022-08-10T03:07:44.553Z,19.84
2022-08-10T03:10:21.070Z,19.74
2022-08-10T03:12:52.777Z,19.71
2022-08-10T03:15:22.735Z,19.80
2022-08-10T03:17:56.753Z,19.79
2022-08-10T03:20:37.336Z,19.85
2022-08-10T03:23:11.991Z,19.63
2022-08-10T03:25:40.504Z,19.62
2022-08-10T03:28:08.933Z,19.28
2022-08-10T03:30:37.582Z,19.28
2022-08-10T03:33:08.846Z,19.51
2022-08-10T03:35:37.342Z,19.49
2022-08-10T03:38:05.648Z,19.42
2022-08-10T03:40:46.032Z,19.38
2022-08-10T03:43:17.358Z,19.75
2022-08-10T03:45:49.489Z,19.54
2022-08-10T03:48:32.306Z,19.42
2022-08-10T03:51:16.118Z,19.27
2022-08-10T03:54:04.941Z,19.54
2022-08-10T03:56:34.200Z,19.43
2022-08-10T03:59:02.964Z,19.37
2022-08-10T04:02:47.060Z,19.38
2022-08-10T04:04:24.775Z,19.48
2022-08-10T04:06:55.211Z,19.36
2022-08-10T04:09:24.288Z,19.16
2022-08-10T04:11:52.473Z,19.41
2022-08-10T04:14:35.721Z,19.35
2022-08-10T04:17:13.758Z,19.10
2022-08-10T04:19:47.463Z,19.43
2022-08-10T04:22:19.371Z,19.08
2022-08-10T04:24:48.842Z,19.47
2022-08-10T04:27:17.233Z,19.42
2022-08-10T04:29:46.069Z,19.65
2022-08-10T04:32:16.250Z,19.63
2022-08-10T04:34:46.325Z,19.52
2022-08-10T04:37:15.300Z,19.76
2022-08-10T04:39:43.726Z,20.03
2022-08-10T04:42:12.034Z,20.03
2022-08-10T04:44:41.896Z,20.13
2022-08-10T04:47:10.129Z,20.29
2022-08-10T04:49:55.727Z,20.35
2022-08-10T04:52:26.420Z,20.15
2022-08-10T04:54:54.829Z,20.45
2022-08-10T04:57:22.995Z,20.54
2022-08-10T04:59:51.225Z,20.19
2022-08-10T05:02:30.312Z,20.43
2022-08-10T05:05:07.901Z,20.79
2022-08-10T05:07:51.448Z,20.89
2022-08-10T05:10:22.416Z,20.60
2022-08-10T05:12:50.749Z,20.90
2022-08-10T05:15:19.349Z,21.25
2022-08-10T05:18:09.630Z,21.51
2022-08-10T05:20:36.367Z,21.47
2022-08-10T05:23:06.161Z,21.67
2022-08-10T05:25:38.058Z,21.89
2022-08-10T05:28:09.262Z,21.82
2022-08-10T05:30:37.550Z,22.17
2022-08-10T05:33:08.804Z,22.39
2022-08-10T05:35:52.910Z,22.87
2022-08-10T05:38:29.892Z,22.78
2022-08-10T05:40:58.643Z,22.78
2022-08-10T05:43:26.949Z,22.61
2022-08-10T05:46:19.012Z,22.91
2022-08-10T05:48:59.252Z,23.14
2022-08-10T05:51:29.935Z,23.06
2022-08-10T05:54:06.004Z,23.14
2022-08-10T05:56:53.950Z,23.33
2022-08-10T06:00:34.552Z,23.08
2022-08-10T06:02:31.681Z,22.95
2022-08-10T06:05:09.453Z,23.18
2022-08-10T06:07:42.873Z,23.34
2022-08-10T06:10:31.690Z,23.52
2022-08-10T06:13:27.154Z,23.64
2022-08-10T06:16:05.266Z,23.97
2022-08-10T06:18:33.837Z,23.82
2022-08-10T06:21:02.261Z,23.88
2022-08-10T06:23:31.343Z,23.91
2022-08-10T06:26:12.214Z,24.20
2022-08-10T06:28:54.051Z,24.27
2022-08-10T06:31:47.812Z,24.73
2022-08-10T06:34:21.713Z,24.86
2022-08-10T06:36:50.462Z,25.00
2022-08-10T06:39:35.831Z,24.91
2022-08-10T06:42:15.880Z,24.98
2022-08-10T06:44:50.315Z,25.27
2022-08-10T06:47:22.933Z,25.43
2022-08-10T06:49:53.863Z,24.96
2022-08-10T06:52:31.731Z,25.29
2022-08-10T06:55:00.827Z,25.53
2022-08-10T06:57:35.759Z,25.52
2022-08-10T07:00:08.133Z,25.73
2022-08-10T07:02:41.835Z,25.85
2022-08-10T07:05:13.271Z,25.90
2022-08-10T07:07:43.222Z,25.72
2022-08-10T07:10:11.635Z,25.82
2022-08-10T07:12:43.886Z,26.17
2022-08-10T07:15:14.162Z,26.40
2022-08-10T07:17:43.017Z,26.49
2022-08-10T07:20:12.458Z,26.41
2022-08-10T07:23:26.890Z,26.37
2022-08-10T07:25:30.778Z,26.63
2022-08-10T07:28:02.099Z,26.52
2022-08-10T07:30:32.030Z,25.75
2022-08-10T07:33:02.147Z,26.52
2022-08-10T07:35:41.860Z,26.77
2022-08-10T07:38:19.088Z,26.69
2022-08-10T07:40:50.892Z,27.53
2022-08-10T07:43:24.117Z,28.22
2022-08-10T07:45:52.697Z,27.74
2022-08-10T07:48:24.468Z,28.13
2022-08-10T07:50:57.921Z,28.12
2022-08-10T07:53:28.553Z,28.80
2022-08-10T07:56:05.007Z,28.56
2022-08-10T07:58:51.844Z,29.03
2022-08-10T08:01:22.777Z,29.38
2022-08-10T08:04:05.929Z,29.32
2022-08-10T08:06:41.696Z,28.54
2022-08-10T08:09:10.797Z,29.15
2022-08-10T08:11:39.530Z,28.51
2022-08-10T08:14:09.783Z,28.27
2022-08-10T08:16:39.318Z,28.18
2022-08-10T08:19:28.100Z,28.35
2022-08-10T08:24:06.834Z,27.99
2022-08-10T08:24:46.172Z,28.48
2022-08-10T08:27:16.912Z,28.41
2022-08-10T08:29:48.361Z,28.67
2022-08-10T08:32:18.342Z,28.71
2022-08-10T08:34:47.590Z,29.23
2022-08-10T08:38:28.895Z,29.68
2022-08-10T08:40:10.626Z,29.68
2022-08-10T08:43:09.389Z,29.90
2022-08-10T08:45:58.716Z,29.56
2022-08-10T08:48:54.519Z,30.19
2022-08-10T08:52:07.868Z,29.75
2022-08-10T08:54:46.711Z,29.63
2022-08-10T08:57:49.379Z,29.49
2022-08-10T09:00:17.502Z,29.48
2022-08-10T09:03:09.399Z,29.18
2022-08-10T09:05:59.147Z,29.89
2022-08-10T09:09:01.262Z,29.67
2022-08-10T09:11:42.658Z,29.64
2022-08-10T09:14:19.476Z,30.21
2022-08-10T09:16:58.950Z,30.13
2022-08-10T09:19:36.851Z,30.04
2022-08-10T09:22:18.198Z,30.52
2022-08-10T09:24:53.751Z,31.03
2022-08-10T09:27:23.902Z,30.47
2022-08-10T09:29:56.290Z,31.65
2022-08-10T09:36:17.095Z,31.65
2022-08-10T09:36:28.297Z,31.44
2022-08-10T09:38:23.952Z,31.67
2022-08-10T09:41:09.114Z,31.34
2022-08-10T09:43:46.463Z,30.14
2022-08-10T09:46:27.324Z,31.49
2022-08-10T09:49:03.490Z,31.65
2022-08-10T09:51:45.815Z,31.57
2022-08-10T09:54:31.555Z,31.95
2022-08-10T09:57:44.960Z,31.71
2022-08-10T10:00:07.957Z,32.93
2022-08-10T10:02:43.350Z,33.65
2022-08-10T10:05:26.123Z,33.61
2022-08-10T10:08:02.110Z,33.49
2022-08-10T10:10:35.382Z,33.07
2022-08-10T10:13:07.290Z,32.24
2022-08-10T10:15:39.114Z,31.93
2022-08-10T10:18:21.759Z,32.51
2022-08-10T10:21:03.028Z,32.30
2022-08-10T10:23:42.402Z,32.10
2022-08-10T10:26:18.964Z,33.00
2022-08-10T10:29:44.754Z,33.63
2022-08-10T10:31:56.878Z,33.38
2022-08-10T10:34:34.572Z,33.31
2022-08-10T10:37:06.600Z,33.99
2022-08-10T10:39:37.599Z,33.50
2022-08-10T10:42:35.030Z,34.31
2022-08-10T10:45:11.164Z,33.82
2022-08-10T10:47:53.008Z,34.18
2022-08-10T10:50:25.958Z,34.83
2022-08-10T10:53:01.888Z,34.25
2022-08-10T10:56:14.754Z,34.95
2022-08-10T10:58:28.594Z,34.10
2022-08-10T11:01:03.590Z,33.62
2022-08-10T11:03:49.397Z,34.16
2022-08-10T11:06:39.256Z,33.80
2022-08-10T11:10:09.478Z,33.21
2022-08-10T11:12:19.661Z,33.72
2022-08-10T11:15:00.081Z,33.97
2022-08-10T11:17:32.965Z,35.00
2022-08-10T11:20:06.975Z,34.75
2022-08-10T11:22:37.919Z,35.17
2022-08-10T11:25:11.224Z,34.71
2022-08-10T11:27:49.022Z,33.88
2022-08-10T11:30:21.321Z,33.60
2022-08-10T11:33:02.867Z,33.68
2022-08-10T11:35:35.488Z,35.22
2022-08-10T11:38:31.616Z,36.02
2022-08-10T11:41:12.695Z,36.46
2022-08-10T11:44:00.446Z,35.35
2022-08-10T11:46:32.255Z,35.49
2022-08-10T11:49:05.280Z,34.79
2022-08-10T11:51:43.299Z,35.92
2022-08-10T11:54:20.046Z,36.33
2022-08-10T11:56:50.261Z,36.91
2022-08-10T11:59:38.490Z,36.28
2022-08-10T12:02:07.843Z,36.67
2022-08-10T12:04:37.607Z,37.27
2022-08-10T12:10:01.711Z,35.72
2022-08-10T12:10:10.126Z,36.61
2022-08-10T12:12:46.252Z,37.02
2022-08-10T12:15:18.505Z,36.87
2022-08-10T12:17:51.257Z,37.27
2022-08-10T12:20:27.720Z,37.56
2022-08-10T12:22:59.427Z,36.94
2022-08-10T12:25:55.528Z,36.61
2022-08-10T12:28:51.363Z,36.26
2022-08-10T12:31:17.805Z,36.08
2022-08-10T12:34:01.558Z,35.14
2022-08-10T12:36:37.974Z,36.13
2022-08-10T12:39:11.255Z,37.35
2022-08-10T12:41:45.493Z,38.19
2022-08-10T12:44:17.634Z,38.30
2022-08-10T12:46:52.238Z,37.20
2022-08-10T12:49:24.534Z,38.92
2022-08-10T12:52:00.814Z,39.26
2022-08-10T12:54:32.234Z,39.47
2022-08-10T12:57:04.316Z,39.90
2022-08-10T12:59:33.349Z,39.13
2022-08-10T13:02:20.291Z,38.72
2022-08-10T13:04:51.301Z,38.14
2022-08-10T13:08:25.464Z,38.42
2022-08-10T13:10:15.918Z,38.11
2022-08-10T13:12:45.846Z,37.20
2022-08-10T13:15:45.767Z,36.30
2022-08-10T13:18:18.120Z,36.81
2022-08-10T13:20:52.319Z,36.59
2022-08-10T13:23:23.850Z,36.13
2022-08-10T13:25:53.568Z,36.65
2022-08-10T13:28:35.317Z,36.99
2022-08-10T13:31:08.791Z,38.40
2022-08-10T13:34:03.720Z,38.53
2022-08-10T13:36:49.984Z,39.02
2022-08-10T13:39:23.571Z,39.13
2022-08-10T13:41:54.318Z,37.31
2022-08-10T13:44:32.497Z,38.77
2022-08-10T13:47:00.927Z,39.25
2022-08-10T13:49:32.393Z,39.38
2022-08-10T13:52:00.639Z,38.83
2022-08-10T13:54:31.373Z,38.51
2022-08-10T13:57:00.431Z,36.80
2022-08-10T14:00:33.661Z,36.58
2022-08-10T14:02:25.104Z,36.36
2022-08-10T14:04:57.111Z,35.71
2022-08-10T14:07:25.918Z,35.03
2022-08-10T14:09:54.899Z,33.07
2022-08-10T14:12:33.599Z,34.50
2022-08-10T14:15:02.863Z,33.91
2022-08-10T14:17:31.652Z,34.09
2022-08-10T14:20:03.375Z,35.20
2022-08-10T14:22:34.034Z,35.34
2022-08-10T14:25:08.159Z,35.23
2022-08-10T14:28:01.797Z,35.43
2022-08-10T14:30:30.944Z,35.50
2022-08-10T14:33:00.420Z,36.22
2022-08-10T14:36:19.451Z,36.68
2022-08-10T14:38:21.536Z,36.56
2022-08-10T14:40:54.338Z,36.01
2022-08-10T14:43:28.743Z,36.58
2022-08-10T14:46:05.634Z,36.27
2022-08-10T14:48:36.279Z,34.99
2022-08-10T14:51:08.196Z,33.26
2022-08-10T14:53:37.903Z,33.68
2022-08-10T14:56:09.469Z,34.11
2022-08-10T14:58:38.962Z,34.08
2022-08-10T15:01:27.206Z,33.93
2022-08-10T15:04:16.026Z,33.40
2022-08-10T15:06:54.841Z,33.47
2022-08-10T15:09:24.874Z,32.79
2022-08-10T15:12:13.571Z,33.01
2022-08-10T15:14:46.076Z,33.35
2022-08-10T15:17:18.152Z,33.62
2022-08-10T15:20:02.381Z,34.03
2022-08-10T15:22:38.182Z,34.35
2022-08-10T15:25:19.138Z,35.01
2022-08-10T15:27:56.181Z,35.46
2022-08-10T15:30:31.053Z,35.29
2022-08-10T15:33:57.860Z,35.39
2022-08-10T15:36:34.855Z,34.70
2022-08-10T15:39:13.553Z,34.02
2022-08-10T15:42:00.495Z,34.13
2022-08-10T15:44:41.287Z,34.28
2022-08-10T15:47:12.253Z,34.53
2022-08-10T15:49:51.803Z,35.04
2022-08-10T15:52:39.969Z,34.58
2022-08-10T15:55:41.341Z,33.91
2022-08-10T15:58:10.912Z,33.49
2022-08-10T16:00:45.113Z,33.68
2022-08-10T16:03:17.276Z,33.86
2022-08-10T16:06:01.858Z,33.49
2022-08-10T16:08:56.099Z,33.36
2022-08-10T16:11:37.587Z,33.04
2022-08-10T16:14:24.951Z,32.92
2022-08-10T16:16:56.313Z,32.68
2022-08-10T16:19:26.853Z,32.92
2022-08-10T16:22:01.270Z,32.41
2022-08-10T16:24:33.105Z,32.17
2022-08-10T16:27:06.614Z,31.86
2022-08-10T16:29:56.083Z,31.94
2022-08-10T16:32:26.001Z,31.83
2022-08-10T16:34:55.521Z,31.41
2022-08-10T16:37:24.228Z,31.45
2022-08-10T16:39:59.129Z,31.72
2022-08-10T16:42:32.708Z,32.18
2022-08-10T16:45:04.895Z,32.23
2022-08-10T16:47:35.745Z,32.37
2022-08-10T16:50:07.117Z,31.78
2022-08-10T16:52:36.333Z,31.96
2022-08-10T16:55:23.432Z,31.65
2022-08-10T16:57:55.475Z,32.16
2022-08-10T17:00:24.911Z,31.98
2022-08-10T17:02:57.123Z,32.37
2022-08-10T17:06:03.561Z,32.47
2022-08-10T17:08:17.594Z,32.36
2022-08-10T17:10:46.210Z,32.75
2022-08-10T17:13:16.574Z,32.80
2022-08-10T17:15:51.272Z,33.10
2022-08-10T17:18:28.631Z,33.35
2022-08-10T17:20:59.704Z,33.43
2022-08-10T17:23:30.389Z,33.20
2022-08-10T17:26:02.177Z,32.94
2022-08-10T17:28:35.386Z,32.77
2022-08-10T17:31:43.654Z,32.20
2022-08-10T17:34:01.714Z,31.98
2022-08-10T17:36:33.817Z,31.88
2022-08-10T17:39:03.398Z,31.54
2022-08-10T17:41:34.903Z,31.25
2022-08-10T17:44:06.525Z,31.36
2022-08-10T17:46:38.631Z,31.22
2022-08-10T17:49:10.068Z,31.14
2022-08-10T17:51:40.008Z,31.06
2022-08-10T17:54:10.534Z,30.89
2022-08-10T17:56:39.546Z,30.59
2022-08-10T17:59:17.387Z,30.38
2022-08-10T18:02:01.801Z,30.33
2022-08-10T18:04:41.354Z,30.15
2022-08-10T18:07:11.572Z,30.01
2022-08-10T18:09:43.222Z,30.03
2022-08-10T18:12:18.126Z,29.86
2022-08-10T18:14:50.810Z,29.73
2022-08-10T18:17:24.926Z,29.65
2022-08-10T18:19:57.007Z,29.51
2022-08-10T18:22:26.342Z,29.20
2022-08-10T18:24:55.679Z,28.97
2022-08-10T18:27:46.509Z,28.78
2022-08-10T18:30:15.815Z,28.76
2022-08-10T18:32:50.092Z,28.62
2022-08-10T18:35:20.069Z,28.59
2022-08-10T18:37:50.429Z,28.51
2022-08-10T18:40:20.172Z,28.62
2022-08-10T18:42:49.836Z,28.29
2022-08-10T18:45:22.476Z,28.26
2022-08-10T18:47:59.692Z,28.68
2022-08-10T18:50:31.871Z,28.25
2022-08-10T18:53:02.666Z,27.91
2022-08-10T18:55:51.542Z,27.61
2022-08-10T18:58:45.034Z,27.67
2022-08-10T19:01:25.082Z,27.44
2022-08-10T19:04:01.914Z,27.44
2022-08-10T19:06:52.970Z,27.40
2022-08-10T19:09:42.147Z,27.71
2022-08-10T19:12:29.834Z,27.87
2022-08-10T19:15:07.138Z,27.27
2022-08-10T19:18:03.444Z,26.84
2022-08-10T19:20:35.264Z,26.99
2022-08-10T19:23:14.466Z,27.06
2022-08-10T19:26:42.375Z,27.05
2022-08-10T19:28:42.391Z,26.79
2022-08-10T19:31:15.936Z,27.01
2022-08-10T19:33:52.883Z,26.77
2022-08-10T19:36:45.997Z,26.95
2022-08-10T19:39:19.964Z,26.79
2022-08-10T19:41:54.442Z,26.52
2022-08-10T19:44:27.998Z,26.45
2022-08-10T19:47:01.746Z,26.28
2022-08-10T19:49:39.794Z,26.39
2022-08-10T19:52:13.813Z,26.26
2022-08-10T19:54:53.082Z,26.09
2022-08-10T19:57:39.286Z,25.48
2022-08-10T20:00:18.007Z,25.58
2022-08-10T20:03:01.398Z,25.59
2022-08-10T20:05:34.093Z,25.73
2022-08-10T20:08:09.648Z,25.29
2022-08-10T20:10:44.795Z,25.22
2022-08-10T20:13:15.631Z,25.14
2022-08-10T20:15:47.560Z,25.50
2022-08-10T20:18:24.404Z,25.13
2022-08-10T20:20:59.316Z,25.26
2022-08-10T20:23:31.135Z,25.07
2022-08-10T20:26:03.213Z,25.27
2022-08-10T20:28:40.654Z,25.17
2022-08-10T20:31:17.570Z,24.95
2022-08-10T20:33:57.440Z,25.06
2022-08-10T20:36:32.706Z,24.98
2022-08-10T20:39:11.352Z,25.21
2022-08-10T20:41:49.422Z,25.32
2022-08-10T20:44:33.305Z,25.30
2022-08-10T20:47:06.858Z,25.34
2022-08-10T20:49:39.604Z,25.44
2022-08-10T20:52:09.551Z,25.40
2022-08-10T20:54:43.644Z,25.22
2022-08-10T20:57:54.052Z,25.26
2022-08-10T21:00:28.765Z,25.22
2022-08-10T21:03:31.339Z,25.09
2022-08-10T21:06:18.797Z,25.44
2022-08-10T21:09:10.577Z,25.20
2022-08-10T21:11:47.410Z,25.31
2022-08-10T21:14:29.530Z,25.11
2022-08-10T21:17:10.819Z,25.29
2022-08-10T21:20:17.151Z,24.55
2022-08-10T21:22:47.948Z,24.81
2022-08-10T21:25:20.685Z,24.66
2022-08-10T21:28:08.466Z,24.84
2022-08-10T21:30:47.243Z,24.73
2022-08-10T21:33:27.492Z,24.41
2022-08-10T21:35:58.483Z,24.50
2022-08-10T21:38:31.444Z,24.56
2022-08-10T21:41:57.571Z,24.32
2022-08-10T21:44:53.510Z,24.03
2022-08-10T21:48:06.818Z,23.98
2022-08-10T21:51:01.722Z,24.13
2022-08-10T21:53:55.276Z,23.99
2022-08-10T21:56:47.041Z,24.40
2022-08-10T21:59:42.750Z,24.53
2022-08-10T22:02:31.697Z,24.29
2022-08-10T22:05:18.702Z,24.16
2022-08-10T22:08:12.134Z,24.32
2022-08-10T22:11:00.646Z,24.55
2022-08-10T22:13:49.126Z,24.61
2022-08-10T22:16:45.080Z,24.40
2022-08-10T22:19:31.794Z,24.68
2022-08-10T22:22:27.734Z,24.02
2022-08-10T22:25:31.986Z,24.36
2022-08-10T22:28:19.325Z,24.32
2022-08-10T22:34:30.895Z,24.06
2022-08-10T22:37:23.926Z,24.08
2022-08-10T22:40:19.466Z,23.96
2022-08-10T22:43:11.036Z,24.19
2022-08-10T22:46:04.394Z,24.16
2022-08-10T22:48:58.894Z,24.18
2022-08-10T22:51:33.525Z,23.88
2022-08-10T22:54:31.282Z,24.02
2022-08-10T22:57:19.028Z,23.53
2022-08-10T22:59:49.288Z,23.98
2022-08-10T23:02:28.566Z,23.96
2022-08-10T23:05:00.140Z,23.85
2022-08-10T23:07:31.803Z,23.78
2022-08-10T23:10:02.800Z,23.64
2022-08-10T23:12:36.604Z,23.45
2022-08-10T23:15:24.534Z,23.59
2022-08-10T23:18:13.341Z,23.15
2022-08-10T23:20:44.276Z,23.33
2022-08-10T23:23:24.033Z,23.68
2022-08-10T23:25:57.512Z,23.08
2022-08-10T23:28:39.034Z,23.25
2022-08-10T23:31:16.041Z,23.31
2022-08-10T23:33:46.220Z,23.39
2022-08-10T23:36:33.454Z,23.23
2022-08-10T23:39:26.343Z,22.75
2022-08-10T23:42:04.663Z,22.74
2022-08-10T23:44:36.807Z,22.73
2022-08-10T23:47:05.884Z,23.06
2022-08-10T23:49:35.845Z,22.89
2022-08-10T23:52:13.022Z,22.46
2022-08-10T23:54:50.134Z,22.75
2022-08-10T23:57:20.131Z,22.63
2022-08-10T23:59:54.315Z,22.44
